createdAt,value
2022-09-28T00:01:24.207Z,0.60
2022-09-28T00:03:54.696Z,2.28
2022-09-28T00:06:24.805Z,1.20
2022-09-28T00:08:52.897Z,0.63
2022-09-28T00:11:22.237Z,0.50
2022-09-28T00:13:56.691Z,0.55
2022-09-28T00:16:28.003Z,0.73
2022-09-28T00:18:56.179Z,1.30
2022-09-28T00:21:26.299Z,0.60
2022-09-28T00:24:14.828Z,0.60
2022-09-28T00:26:54.307Z,0.40
2022-09-28T00:29:22.108Z,0.55
2022-09-28T00:31:52.650Z,0.50
2022-09-28T00:34:20.948Z,0.40
2022-09-28T00:36:49.286Z,1.77
2022-09-28T00:39:17.796Z,0.60
2022-09-28T00:41:47.175Z,0.50
2022-09-28T00:44:26.790Z,0.77
2022-09-28T00:46:58.777Z,0.43
2022-09-28T00:49:40.555Z,1.23
2022-09-28T00:52:13.026Z,0.40
2022-09-28T00:54:45.465Z,0.75
2022-09-28T00:57:14.384Z,1.05
2022-09-28T00:59:43.226Z,0.43
2022-09-28T01:02:11.081Z,1.52
2022-09-28T01:04:39.066Z,0.68
2022-09-28T01:07:09.056Z,0.60
2022-09-28T01:09:40.606Z,0.45
2022-09-28T01:12:08.575Z,1.77
2022-09-28T01:14:36.307Z,0.65
2022-09-28T01:17:24.765Z,0.73
2022-09-28T01:20:33.167Z,0.63
2022-09-28T01:23:13.309Z,1.67
2022-09-28T01:25:54.115Z,1.80
2022-09-28T01:28:28.216Z,2.35
2022-09-28T01:31:27.325Z,0.70
2022-09-28T01:34:00.507Z,0.70
2022-09-28T01:36:43.875Z,0.98
2022-09-28T01:39:16.913Z,0.80
2022-09-28T01:41:48.316Z,1.10
2022-09-28T01:44:20.096Z,1.10
2022-09-28T01:46:49.936Z,1.75
2022-09-28T01:49:31.129Z,1.00
2022-09-28T01:52:35.035Z,2.13
2022-09-28T01:55:30.985Z,1.43
2022-09-28T01:58:21.807Z,1.00
2022-09-28T02:00:55.423Z,1.23
2022-09-28T02:03:29.765Z,1.20
2022-09-28T02:06:11.438Z,1.83
2022-09-28T02:09:03.436Z,1.00
2022-09-28T02:11:44.986Z,5.32
2022-09-28T02:14:17.176Z,0.88
2022-09-28T02:16:54.446Z,1.50
2022-09-28T02:19:30.336Z,0.98
2022-09-28T02:22:07.166Z,2.67
2022-09-28T02:24:42.666Z,0.88
2022-09-28T02:27:40.226Z,1.50
2022-09-28T02:30:08.816Z,2.10
2022-09-28T02:32:42.814Z,0.80
2022-09-28T02:35:17.357Z,1.00
2022-09-28T02:37:47.108Z,1.20
2022-09-28T02:40:28.430Z,1.48
2022-09-28T02:43:08.977Z,0.80
2022-09-28T02:45:45.640Z,0.90
2022-09-28T02:48:43.528Z,1.20
2022-09-28T02:51:25.047Z,0.80
2022-09-28T02:54:18.880Z,0.80
2022-09-28T02:57:07.106Z,0.82
2022-09-28T02:59:46.386Z,2.22
2022-09-28T03:02:26.205Z,4.45
2022-09-28T03:05:19.786Z,4.63
2022-09-28T03:08:00.028Z,4.55
2022-09-28T03:10:45.806Z,5.70
2022-09-28T03:13:16.503Z,7.03
2022-09-28T03:15:48.656Z,7.38
2022-09-28T03:18:17.756Z,6.45
2022-09-28T03:20:45.555Z,8.55
2022-09-28T03:23:24.405Z,6.40
2022-09-28T03:25:52.880Z,9.65
2022-09-28T03:28:21.568Z,8.02
2022-09-28T03:30:50.379Z,12.52
2022-09-28T03:33:19.909Z,11.80
2022-09-28T03:35:49.056Z,12.95
2022-09-28T03:38:21.306Z,10.98
2022-09-28T03:40:57.360Z,12.80
2022-09-28T03:43:27.378Z,12.95
2022-09-28T03:46:01.753Z,13.52
2022-09-28T03:51:03.337Z,13.68
2022-09-28T03:53:30.936Z,15.57
2022-09-28T03:56:13.987Z,14.13
2022-09-28T03:58:42.712Z,15.02
2022-09-28T04:01:16.815Z,15.05
2022-09-28T04:03:47.274Z,14.55
2022-09-28T04:06:15.430Z,12.02
2022-09-28T04:08:43.562Z,14.20
2022-09-28T04:11:11.993Z,10.00
2022-09-28T04:13:39.736Z,9.68
2022-09-28T04:16:11.764Z,10.38
2022-09-28T04:18:43.986Z,13.33
2022-09-28T04:21:30.057Z,15.13
2022-09-28T04:24:04.651Z,17.42
2022-09-28T04:26:32.396Z,19.88
2022-09-28T04:29:18.288Z,19.65
2022-09-28T04:32:06.109Z,21.35
2022-09-28T04:34:39.682Z,25.80
2022-09-28T04:37:10.866Z,21.30
2022-09-28T04:39:43.012Z,24.48
2022-09-28T04:42:13.327Z,25.27
2022-09-28T04:44:40.995Z,23.17
2022-09-28T04:47:10.606Z,23.73
2022-09-28T04:49:56.869Z,24.83
2022-09-28T04:52:32.175Z,24.17
2022-09-28T04:54:59.887Z,32.15
2022-09-28T04:57:27.427Z,26.23
2022-09-28T04:59:55.627Z,21.85
2022-09-28T05:02:23.297Z,23.00
2022-09-28T05:05:09.276Z,18.85
2022-09-28T05:07:46.196Z,17.92
2022-09-28T05:10:13.950Z,19.75
2022-09-28T05:12:41.830Z,18.13
2022-09-28T05:15:10.641Z,15.82
2022-09-28T05:17:38.186Z,14.13
2022-09-28T05:20:42.296Z,17.25
2022-09-28T05:23:11.515Z,15.32
2022-09-28T05:25:39.996Z,16.83
2022-09-28T05:28:29.601Z,15.05
2022-09-28T05:31:20.234Z,14.73
2022-09-28T05:34:05.527Z,16.00
2022-09-28T05:36:33.168Z,16.65
2022-09-28T05:39:01.485Z,19.40
2022-09-28T05:41:31.693Z,17.15
2022-09-28T05:44:00.647Z,19.55
2022-09-28T05:46:30.212Z,21.45
2022-09-28T05:49:00.608Z,19.48
2022-09-28T05:51:28.625Z,19.42
2022-09-28T05:53:58.820Z,17.27
2022-09-28T05:56:31.573Z,14.60
2022-09-28T05:58:59.237Z,14.50
2022-09-28T06:01:29.897Z,11.85
2022-09-28T06:03:59.684Z,12.30
2022-09-28T06:06:27.347Z,9.02
2022-09-28T06:08:54.985Z,11.70
2022-09-28T06:11:45.576Z,11.32
2022-09-28T06:14:32.527Z,9.60
2022-09-28T06:17:00.202Z,9.63
2022-09-28T06:19:28.006Z,9.57
2022-09-28T06:22:31.156Z,7.82
2022-09-28T06:25:08.766Z,10.23
2022-09-28T06:27:37.309Z,10.15
2022-09-28T06:30:05.230Z,9.50
2022-09-28T06:32:32.946Z,8.88
2022-09-28T06:35:00.507Z,10.88
2022-09-28T06:37:29.016Z,13.00
2022-09-28T06:39:57.284Z,12.43
2022-09-28T06:42:25.257Z,14.55
2022-09-28T06:45:11.666Z,12.43
2022-09-28T06:48:05.987Z,12.25
2022-09-28T06:50:42.459Z,12.80
2022-09-28T06:53:28.955Z,14.27
2022-09-28T06:56:11.439Z,14.02
2022-09-28T06:58:39.127Z,12.82
2022-09-28T07:01:06.963Z,12.68
2022-09-28T07:03:55.770Z,11.88
2022-09-28T07:06:47.738Z,9.75
2022-09-28T07:09:38.153Z,12.38
2022-09-28T07:12:16.177Z,12.35
2022-09-28T07:15:05.187Z,10.35
2022-09-28T07:17:41.745Z,6.35
2022-09-28T07:20:19.054Z,6.00
2022-09-28T07:22:53.885Z,7.50
2022-09-28T07:25:24.248Z,6.47
2022-09-28T07:28:25.527Z,6.50
2022-09-28T07:31:12.088Z,6.40
2022-09-28T07:34:06.004Z,5.32
2022-09-28T07:36:57.537Z,5.05
2022-09-28T07:39:25.486Z,6.82
2022-09-28T07:41:59.611Z,5.50
2022-09-28T07:44:29.882Z,5.30
2022-09-28T07:46:58.319Z,9.13
2022-09-28T07:49:43.267Z,7.25
2022-09-28T07:52:40.057Z,7.65
2022-09-28T07:55:19.964Z,5.15
2022-09-28T07:58:09.407Z,9.63
2022-09-28T08:01:04.322Z,3.67
2022-09-28T08:03:32.307Z,3.67
2022-09-28T08:06:06.106Z,4.75
2022-09-28T08:08:35.152Z,4.85
2022-09-28T08:11:03.246Z,3.75
2022-09-28T08:14:06.087Z,3.97
2022-09-28T08:17:07.226Z,3.90
2022-09-28T08:20:08.967Z,3.95
2022-09-28T08:22:37.316Z,3.67
2022-09-28T08:25:05.426Z,2.35
2022-09-28T08:27:33.416Z,2.22
2022-09-28T08:30:00.968Z,4.13
2022-09-28T08:32:57.976Z,3.03
2022-09-28T08:35:37.617Z,2.10
2022-09-28T08:38:31.040Z,3.90
2022-09-28T08:41:49.166Z,4.30
2022-09-28T08:44:25.619Z,1.73
2022-09-28T08:47:42.766Z,2.83
2022-09-28T08:51:06.406Z,2.83
2022-09-28T08:54:09.514Z,3.53
2022-09-28T08:57:00.436Z,2.17
2022-09-28T08:59:53.816Z,2.55
2022-09-28T09:02:36.896Z,4.75
2022-09-28T09:05:19.260Z,2.53
2022-09-28T09:08:53.376Z,2.53
2022-09-28T09:11:32.577Z,1.50
2022-09-28T09:14:19.427Z,2.03
2022-09-28T09:17:26.736Z,1.20
2022-09-28T09:20:04.786Z,3.00
2022-09-28T09:22:59.866Z,3.10
2022-09-28T09:25:31.949Z,1.80
2022-09-28T09:28:02.495Z,1.60
2022-09-28T09:30:42.966Z,2.47
2022-09-28T09:33:17.226Z,1.35
2022-09-28T09:36:38.586Z,1.00
2022-09-28T09:39:38.196Z,5.57
2022-09-28T09:42:52.948Z,3.08
2022-09-28T09:45:46.959Z,1.60
2022-09-28T09:48:48.526Z,0.60
2022-09-28T09:51:22.255Z,0.63
2022-09-28T09:54:00.288Z,0.80
2022-09-28T09:56:44.117Z,0.70
2022-09-28T09:59:25.057Z,0.77
2022-09-28T10:02:11.788Z,1.35
2022-09-28T10:04:59.505Z,1.48
2022-09-28T10:08:03.266Z,0.73
2022-09-28T10:10:56.836Z,1.35
2022-09-28T10:13:29.385Z,1.48
2022-09-28T10:16:01.574Z,1.70
2022-09-28T10:18:47.427Z,2.03
2022-09-28T10:21:37.757Z,2.15
2022-09-28T10:24:40.366Z,2.55
2022-09-28T10:27:14.747Z,2.65
2022-09-28T10:30:15.106Z,2.80
2022-09-28T10:32:45.005Z,2.08
2022-09-28T10:35:18.926Z,1.10
2022-09-28T10:37:59.878Z,1.20
2022-09-28T10:41:09.607Z,1.00
2022-09-28T10:44:07.321Z,1.35
2022-09-28T10:47:00.267Z,2.00
2022-09-28T10:49:44.380Z,1.77
2022-09-28T10:52:36.356Z,2.05
2022-09-28T10:55:29.516Z,1.27
2022-09-28T10:57:59.616Z,1.33
2022-09-28T11:00:49.633Z,1.40
2022-09-28T11:03:25.768Z,2.97
2022-09-28T11:05:58.143Z,1.65
2022-09-28T11:08:30.314Z,1.10
2022-09-28T11:11:21.182Z,1.40
2022-09-28T11:14:03.843Z,1.13
2022-09-28T11:16:36.933Z,1.17
2022-09-28T11:19:29.783Z,1.80
2022-09-28T11:21:57.341Z,3.85
2022-09-28T11:24:34.164Z,1.85
2022-09-28T11:27:04.181Z,2.25
2022-09-28T11:29:41.918Z,2.65
2022-09-28T11:32:44.064Z,4.25
2022-09-28T11:35:32.251Z,3.22
2022-09-28T11:38:27.233Z,3.08
2022-09-28T11:41:39.622Z,3.35
2022-09-28T11:44:07.625Z,4.40
2022-09-28T11:47:13.683Z,5.82
2022-09-28T11:49:56.210Z,3.38
2022-09-28T11:52:31.932Z,3.28
2022-09-28T11:55:12.431Z,3.25
2022-09-28T11:57:45.471Z,2.22
2022-09-28T12:00:38.344Z,2.57
2022-09-28T12:03:13.786Z,2.90
2022-09-28T12:05:51.022Z,6.10
2022-09-28T12:08:30.743Z,2.92
2022-09-28T12:11:11.542Z,2.67
2022-09-28T12:14:00.762Z,2.08
2022-09-28T12:17:05.846Z,3.25
2022-09-28T12:19:42.962Z,2.28
2022-09-28T12:22:34.282Z,1.63
2022-09-28T12:25:04.046Z,1.80
2022-09-28T12:28:22.073Z,1.00
2022-09-28T12:30:50.401Z,4.30
2022-09-28T12:33:18.061Z,0.80
2022-09-28T12:36:18.862Z,1.02
2022-09-28T12:39:21.833Z,0.77
2022-09-28T12:42:03.673Z,0.80
2022-09-28T12:44:40.950Z,1.08
2022-09-28T12:47:16.405Z,0.80
2022-09-28T12:50:40.243Z,1.25
2022-09-28T12:53:37.342Z,1.50
2022-09-28T12:56:22.333Z,0.82
2022-09-28T12:59:15.040Z,0.93
2022-09-28T13:02:11.766Z,1.80
2022-09-28T13:04:46.064Z,0.70
2022-09-28T13:07:21.132Z,1.17
2022-09-28T13:09:51.868Z,0.75
2022-09-28T13:12:31.112Z,0.73
2022-09-28T13:15:23.773Z,0.90
2022-09-28T13:18:36.304Z,0.93
2022-09-28T13:21:26.453Z,0.88
2022-09-28T13:24:14.316Z,1.65
2022-09-28T13:26:47.585Z,0.65
2022-09-28T13:29:17.852Z,0.65
2022-09-28T13:31:58.345Z,0.60
2022-09-28T13:34:29.016Z,0.40
2022-09-28T13:37:17.010Z,0.50
2022-09-28T13:39:44.502Z,0.93
2022-09-28T13:42:36.593Z,2.30
2022-09-28T13:45:22.362Z,0.70
2022-09-28T13:48:20.506Z,0.52
2022-09-28T13:51:16.803Z,0.50
2022-09-28T13:54:07.004Z,0.50
2022-09-28T13:56:44.294Z,0.55
2022-09-28T13:59:34.063Z,0.80
2022-09-28T14:02:37.820Z,0.52
2022-09-28T14:05:26.671Z,0.88
2022-09-28T14:08:09.179Z,0.50
2022-09-28T14:10:51.895Z,0.68
2022-09-28T14:13:40.821Z,1.17
2022-09-28T14:16:24.550Z,1.88
2022-09-28T14:19:15.266Z,1.00
2022-09-28T14:21:49.793Z,1.38
2022-09-28T14:24:33.619Z,0.52
2022-09-28T14:27:03.862Z,0.70
2022-09-28T14:29:37.911Z,1.80
2022-09-28T14:32:22.892Z,2.35
2022-09-28T14:35:01.127Z,1.00
2022-09-28T14:37:53.553Z,0.95
2022-09-28T14:41:10.898Z,1.20
2022-09-28T14:43:57.780Z,1.65
2022-09-28T14:46:25.480Z,1.08
2022-09-28T14:48:55.870Z,0.77
2022-09-28T14:51:35.611Z,4.63
2022-09-28T14:54:06.203Z,2.42
2022-09-28T14:56:40.340Z,1.27
2022-09-28T14:59:17.416Z,2.15
2022-09-28T15:01:54.360Z,1.45
2022-09-28T15:04:26.509Z,2.15
2022-09-28T15:06:54.252Z,1.27
2022-09-28T15:09:27.590Z,1.40
2022-09-28T15:12:18.231Z,1.40
2022-09-28T15:15:03.802Z,1.42
2022-09-28T15:17:39.990Z,0.90
2022-09-28T15:20:22.009Z,1.55
2022-09-28T15:22:53.158Z,1.20
2022-09-28T15:25:22.262Z,1.08
2022-09-28T15:27:55.630Z,1.23
2022-09-28T15:30:23.571Z,2.90
2022-09-28T15:32:56.909Z,1.30
2022-09-28T15:35:27.216Z,1.42
2022-09-28T15:37:55.735Z,2.00
2022-09-28T15:40:33.626Z,1.50
2022-09-28T15:43:02.570Z,1.50
2022-09-28T15:45:38.741Z,2.58
2022-09-28T15:48:52.279Z,1.60
2022-09-28T15:51:21.509Z,3.47
2022-09-28T15:53:51.589Z,3.33
2022-09-28T15:56:19.153Z,2.97
2022-09-28T15:59:15.430Z,1.45
2022-09-28T16:01:44.448Z,3.13
2022-09-28T16:04:48.171Z,2.42
2022-09-28T16:07:40.692Z,1.48
2022-09-28T16:10:14.121Z,3.08
2022-09-28T16:12:54.452Z,3.15
2022-09-28T16:15:29.035Z,2.00
2022-09-28T16:18:03.250Z,3.17
2022-09-28T16:20:34.259Z,2.10
2022-09-28T16:23:28.533Z,2.65
2022-09-28T16:26:00.704Z,2.35
2022-09-28T16:28:34.686Z,3.25
2022-09-28T16:31:34.535Z,3.25
2022-09-28T16:34:16.762Z,3.85
2022-09-28T16:36:47.312Z,1.95
2022-09-28T16:39:16.841Z,1.75
2022-09-28T16:41:50.882Z,2.75
2022-09-28T16:44:28.588Z,1.67
2022-09-28T16:46:58.586Z,3.25
2022-09-28T16:49:26.470Z,2.53
2022-09-28T16:51:54.214Z,2.88
2022-09-28T16:54:42.993Z,3.95
2022-09-28T16:57:13.744Z,2.33
2022-09-28T16:59:41.419Z,2.53
2022-09-28T17:02:45.342Z,3.53
2022-09-28T17:05:08.141Z,3.90
2022-09-28T17:07:36.035Z,5.13
2022-09-28T17:10:09.331Z,4.18
2022-09-28T17:12:36.851Z,3.28
2022-09-28T17:15:04.572Z,3.67
2022-09-28T17:17:32.009Z,3.15
2022-09-28T17:19:59.808Z,2.85
2022-09-28T17:22:27.332Z,3.80
2022-09-28T17:24:54.832Z,3.95
2022-09-28T17:27:22.369Z,3.88
2022-09-28T17:29:49.802Z,4.93
2022-09-28T17:32:19.019Z,5.63
2022-09-28T17:34:55.891Z,6.22
2022-09-28T17:37:37.684Z,4.35
2022-09-28T17:40:28.513Z,4.15
2022-09-28T17:42:57.661Z,5.82
2022-09-28T17:45:28.584Z,3.72
2022-09-28T17:47:56.400Z,4.15
2022-09-28T17:50:35.116Z,3.42
2022-09-28T17:53:06.562Z,3.50
2022-09-28T17:55:36.344Z,4.38
2022-09-28T17:58:23.028Z,5.55
2022-09-28T18:00:51.783Z,5.13
2022-09-28T18:03:21.861Z,4.40
2022-09-28T18:06:06.614Z,6.60
2022-09-28T18:08:34.930Z,8.63
2022-09-28T18:11:02.391Z,5.97
2022-09-28T18:13:29.881Z,10.35
2022-09-28T18:15:57.394Z,8.73
2022-09-28T18:18:25.862Z,6.85
2022-09-28T18:20:53.360Z,4.25
2022-09-28T18:23:20.852Z,4.65
2022-09-28T18:25:49.342Z,3.80
2022-09-28T18:28:16.869Z,2.50
2022-09-28T18:30:45.684Z,4.55
2022-09-28T18:33:14.570Z,3.50
2022-09-28T18:35:51.621Z,2.75
2022-09-28T18:38:19.500Z,4.25
2022-09-28T18:40:48.478Z,3.45
2022-09-28T18:43:16.762Z,3.88
2022-09-28T18:45:44.219Z,3.40
2022-09-28T18:48:11.797Z,4.20
2022-09-28T18:50:42.020Z,3.47
2022-09-28T18:53:12.637Z,5.60
2022-09-28T18:55:42.252Z,4.45
2022-09-28T18:58:11.181Z,3.80
2022-09-28T19:00:41.180Z,6.40
2022-09-28T19:03:11.393Z,6.05
2022-09-28T19:05:43.470Z,3.85
2022-09-28T19:08:10.991Z,5.70
2022-09-28T19:10:38.548Z,4.43
2022-09-28T19:13:06.382Z,5.60
2022-09-28T19:15:34.780Z,5.35
2022-09-28T19:18:02.602Z,8.02
2022-09-28T19:20:30.009Z,4.85
2022-09-28T19:22:57.882Z,8.20
2022-09-28T19:25:25.562Z,5.10
2022-09-28T19:27:53.121Z,6.50
2022-09-28T19:30:20.522Z,5.43
2022-09-28T19:32:48.044Z,6.22
2022-09-28T19:35:15.510Z,5.28
2022-09-28T19:37:46.741Z,7.60
2022-09-28T19:40:14.292Z,11.18
2022-09-28T19:42:41.691Z,9.68
2022-09-28T19:45:10.975Z,5.22
2022-09-28T19:47:39.130Z,5.10
2022-09-28T19:50:07.130Z,6.05
2022-09-28T19:52:34.572Z,9.15
2022-09-28T19:55:02.041Z,6.45
2022-09-28T19:57:31.422Z,5.63
2022-09-28T20:00:03.183Z,5.50
2022-09-28T20:02:35.205Z,7.97
2022-09-28T20:05:03.592Z,5.18
2022-09-28T20:07:33.150Z,9.18
2022-09-28T20:10:00.750Z,6.00
2022-09-28T20:12:28.140Z,5.88
2022-09-28T20:14:55.712Z,4.88
2022-09-28T20:17:23.150Z,6.68
2022-09-28T20:19:51.904Z,6.65
2022-09-28T20:22:20.163Z,5.95
2022-09-28T20:24:47.688Z,5.20
2022-09-28T20:27:15.204Z,5.45
2022-09-28T20:29:43.214Z,3.97
2022-09-28T20:32:12.413Z,5.55
2022-09-28T20:34:39.856Z,6.03
2022-09-28T20:37:07.282Z,4.55
2022-09-28T20:39:34.890Z,4.55
2022-09-28T20:42:02.946Z,5.93
2022-09-28T20:44:31.102Z,3.58
2022-09-28T20:46:58.768Z,5.40
2022-09-28T20:49:28.178Z,5.47
2022-09-28T20:51:55.656Z,4.10
2022-09-28T20:54:23.101Z,3.78
2022-09-28T20:56:50.521Z,4.05
2022-09-28T20:59:18.251Z,5.60
2022-09-28T21:01:45.779Z,4.85
2022-09-28T21:04:13.331Z,4.70
2022-09-28T21:06:42.341Z,3.78
2022-09-28T21:09:10.881Z,3.88
2022-09-28T21:11:39.859Z,3.53
2022-09-28T21:14:09.721Z,3.72
2022-09-28T21:16:37.564Z,4.53
2022-09-28T21:19:05.033Z,3.95
2022-09-28T21:21:32.590Z,4.82
2022-09-28T21:24:00.106Z,4.30
2022-09-28T21:26:29.969Z,3.13
2022-09-28T21:28:59.963Z,3.30
2022-09-28T21:31:30.330Z,3.60
2022-09-28T21:33:58.789Z,4.88
2022-09-28T21:36:26.438Z,4.32
2022-09-28T21:38:55.685Z,3.97
2022-09-28T21:41:24.210Z,3.10
2022-09-28T21:43:52.548Z,3.63
2022-09-28T21:46:20.003Z,2.67
2022-09-28T21:48:51.761Z,3.63
2022-09-28T21:51:19.619Z,2.80
2022-09-28T21:53:48.550Z,3.17
2022-09-28T21:56:16.141Z,5.53
2022-09-28T21:58:43.579Z,3.92
2022-09-28T22:01:18.053Z,3.90
2022-09-28T22:03:48.792Z,3.38
2022-09-28T22:06:18.512Z,4.75
2022-09-28T22:08:47.290Z,4.80
2022-09-28T22:11:17.894Z,3.47
2022-09-28T22:13:51.441Z,4.20
2022-09-28T22:16:21.299Z,4.45
2022-09-28T22:18:49.500Z,3.83
2022-09-28T22:21:24.867Z,5.47
2022-09-28T22:23:53.051Z,5.13
2022-09-28T22:26:23.572Z,3.50
2022-09-28T22:28:56.593Z,3.65
2022-09-28T22:31:28.709Z,4.40
2022-09-28T22:33:56.819Z,4.28
2022-09-28T22:36:26.024Z,3.50
2022-09-28T22:38:55.414Z,2.83
2022-09-28T22:41:23.539Z,3.13
2022-09-28T22:43:53.106Z,2.97
2022-09-28T22:46:26.584Z,3.03
2022-09-28T22:48:56.409Z,3.58
2022-09-28T22:51:25.878Z,3.72
2022-09-28T22:53:53.397Z,3.63
2022-09-28T22:56:20.951Z,3.15
2022-09-28T22:58:48.483Z,4.15
2022-09-28T23:01:22.112Z,4.43
2022-09-28T23:03:51.062Z,3.28
2022-09-28T23:06:20.910Z,3.60
2022-09-28T23:08:49.452Z,3.78
2022-09-28T23:11:17.400Z,3.65
2022-09-28T23:13:55.589Z,4.22
2022-09-28T23:16:25.945Z,4.82
2022-09-28T23:18:54.816Z,3.35
2022-09-28T23:21:24.024Z,5.13
2022-09-28T23:23:57.039Z,3.28
2022-09-28T23:26:30.372Z,3.20
2022-09-28T23:28:58.839Z,3.92
2022-09-28T23:31:29.390Z,3.38
2022-09-28T23:33:58.849Z,4.25
2022-09-28T23:36:26.654Z,3.13
2022-09-28T23:38:54.455Z,4.68
2022-09-28T23:41:21.990Z,3.45
2022-09-28T23:43:49.512Z,4.85
2022-09-28T23:46:20.749Z,4.55
2022-09-28T23:48:49.543Z,4.03
2022-09-28T23:51:17.251Z,3.42
2022-09-28T23:53:45.562Z,3.72
2022-09-28T23:56:14.546Z,5.55
2022-09-28T23:58:42.450Z,3.63
